Time;durP1;ratioP1;P1;durP2;ratioP2;P2;SDS_P1;SDS_P2;PMS_P1;PMS_P2;Temp;Humidity;BMP_temperature;BMP_pressure;BME280_temperature;BME280_humidity;BME280_pressure;Samples;Min_cycle;Max_cycle;Signal;HPM_P1;HPM_P2
2023/10/29 00:00:15;;;;;;;4.82;1.00;;;;;;;8.91;100.00;150913.47;10499671;28;20067;-71
2023/10/29 00:05:18;;;;;;;0.82;0.65;;;;;;;8.90;100.00;150910.88;10500020;28;20044;-71
2023/10/29 00:10:21;;;;;;;1.67;0.80;;;;;;;8.96;100.00;150926.34;10498945;28;20067;-71
2023/10/29 00:15:23;;;;;;;2.30;1.23;;;;;;;9.12;100.00;150966.34;10499133;28;20068;-73
2023/10/29 00:20:25;;;;;;;2.03;0.85;;;;;;;9.07;100.00;150954.75;10499445;28;20067;-72
2023/10/29 00:25:26;;;;;;;1.35;0.88;;;;;;;8.95;100.00;150923.78;10498654;28;20116;-72
2023/10/29 00:30:28;;;;;;;1.75;0.90;;;;;;;9.05;100.00;150948.28;10498766;28;20523;-72
2023/10/29 00:35:30;;;;;;;1.90;0.85;;;;;;;8.99;100.00;150934.09;10464110;28;20057;-72
2023/10/29 00:40:36;;;;;;;3.28;0.82;;;;;;;9.09;100.00;150958.59;10480223;28;20055;-72
2023/10/29 00:45:40;;;;;;;1.45;0.98;;;;;;;9.09;100.00;150958.59;10480431;28;20071;-72
2023/10/29 00:50:42;;;;;;;1.73;1.00;;;;;;;9.14;100.00;150970.19;10480491;28;20052;-72
2023/10/29 00:55:44;;;;;;;1.90;1.33;;;;;;;9.24;100.00;150997.25;10480035;28;20056;-72
2023/10/29 01:00:47;;;;;;;2.88;1.50;;;;;;;9.38;100.00;151030.81;10498702;28;20122;-72
2023/10/29 01:05:50;;;;;;;2.60;1.05;;;;;;;9.62;100.00;151092.75;10481143;28;20080;-72
2023/10/29 01:10:51;;;;;;;1.73;1.13;;;;;;;9.67;100.00;151104.38;10498149;28;20120;-72
2023/10/29 01:15:53;;;;;;;1.65;1.33;;;;;;;9.80;100.00;151139.19;10498555;28;20124;-72
2023/10/29 01:20:56;;;;;;;2.10;1.30;;;;;;;9.83;100.00;151145.66;10481774;28;20044;-72
2023/10/29 01:25:58;;;;;;;1.33;1.20;;;;;;;9.69;100.00;151110.78;10487168;28;20052;-72
2023/10/29 01:31:00;;;;;;;1.33;1.23;;;;;;;9.79;100.00;151136.63;10505029;28;20047;-72
2023/10/29 01:36:02;;;;;;;3.70;1.50;;;;;;;9.78;100.00;151134.06;10503441;28;20143;-72
2023/10/29 01:41:04;;;;;;;1.50;1.27;;;;;;;9.74;100.00;151122.41;10486868;28;20098;-72
2023/10/29 01:46:06;;;;;;;1.50;1.20;;;;;;;9.80;100.00;151139.19;10486721;28;20075;-72
2023/10/29 01:51:08;;;;;;;1.80;1.10;;;;;;;9.82;100.00;151143.06;10485965;28;20059;-72
2023/10/29 01:56:10;;;;;;;1.50;1.10;;;;;;;9.90;100.00;151162.41;10486219;28;20047;-72
2023/10/29 02:01:12;;;;;;;3.20;1.00;;;;;;;9.91;100.00;151166.28;10485719;28;20044;-72
2023/10/29 02:06:18;;;;;;;1.88;1.00;;;;;;;9.84;100.00;151148.25;10503577;28;20138;-72
2023/10/29 02:11:20;;;;;;;1.55;1.10;;;;;;;9.76;100.00;151127.59;10503599;28;20064;-72
2023/10/29 02:16:23;;;;;;;1.50;1.10;;;;;;;9.67;100.00;151105.66;10485874;28;20079;-72
2023/10/29 02:21:25;;;;;;;3.30;1.27;;;;;;;9.63;100.00;151095.31;10503662;28;20075;-72
2023/10/29 02:26:27;;;;;;;3.35;1.13;;;;;;;9.99;100.00;151186.94;10502671;28;20508;-72
2023/10/29 02:31:29;;;;;;;1.92;0.90;;;;;;;9.95;100.00;151176.59;10502650;28;20128;-72
2023/10/29 02:36:31;;;;;;;1.85;1.27;;;;;;;10.00;100.00;151188.22;10502248;28;20048;-71
2023/10/29 02:41:33;;;;;;;2.28;1.98;;;;;;;10.06;100.00;151203.75;10502564;28;20089;-72
2023/10/29 02:46:36;;;;;;;1.88;0.88;;;;;;;10.16;100.00;151229.53;10484037;28;20423;-72
2023/10/29 02:51:38;;;;;;;2.08;0.82;;;;;;;10.27;100.00;151256.66;10501865;28;20044;-72
2023/10/29 02:56:40;;;;;;;1.35;0.77;;;;;;;10.25;100.00;151251.53;10502551;28;20117;-72
2023/10/29 03:01:42;;;;;;;2.38;0.90;;;;;;;10.09;100.00;151212.78;10483783;28;20492;-72
2023/10/29 03:06:44;;;;;;;2.25;0.98;;;;;;;10.39;100.00;151287.66;10501241;28;20064;-71
2023/10/29 03:11:46;;;;;;;1.48;1.02;;;;;;;10.45;100.00;151301.91;10501339;28;20089;-72
2023/10/29 03:16:48;;;;;;;2.28;0.93;;;;;;;10.13;100.00;151221.78;10482564;28;20052;-72
2023/10/29 03:21:49;;;;;;;2.55;1.05;;;;;;;10.10;100.00;151214.06;10482554;28;20052;-72
2023/10/29 03:26:51;;;;;;;2.85;1.65;;;;;;;10.00;100.00;151188.22;10482652;28;20037;-72
2023/10/29 03:31:53;;;;;;;1.45;1.15;;;;;;;10.17;100.00;151232.09;10501165;28;20036;-71
2023/10/29 03:36:55;;;;;;;1.23;0.75;;;;;;;10.14;100.00;151224.41;10501799;28;20045;-72
2023/10/29 03:41:57;;;;;;;3.00;1.13;;;;;;;10.31;100.00;151268.34;10500125;28;20086;-72
2023/10/29 03:46:59;;;;;;;1.10;1.00;;;;;;;10.48;100.00;151310.91;10499643;28;20542;-71
2023/10/29 03:52:00;;;;;;;4.13;0.95;;;;;;;10.50;100.00;151316.09;10500014;28;20037;-71
2023/10/29 03:57:02;;;;;;;2.53;0.82;;;;;;;10.42;100.00;151295.44;10481483;28;20083;-72
2023/10/29 04:02:04;;;;;;;0.80;0.73;;;;;;;10.26;100.00;151255.38;10499334;28;20436;-72
2023/10/29 04:07:06;;;;;;;1.33;0.88;;;;;;;10.27;100.00;151256.66;10481572;28;20044;-71
2023/10/29 04:12:08;;;;;;;1.70;0.98;;;;;;;10.20;100.00;151238.56;10499383;28;20132;-72
2023/10/29 04:17:11;;;;;;;1.05;0.63;;;;;;;10.32;100.00;151270.91;10480755;28;20051;-71
2023/10/29 04:22:15;;;;;;;3.03;0.80;;;;;;;10.29;100.00;151261.84;10500776;28;20041;-72
2023/10/29 04:27:17;;;;;;;2.17;0.70;;;;;;;10.17;100.00;151230.81;10499802;28;20087;-71
2023/10/29 04:32:18;;;;;;;1.55;0.70;;;;;;;10.25;100.00;151251.53;10500700;28;20489;-72
2023/10/29 04:37:22;;;;;;;1.50;1.05;;;;;;;10.05;100.00;151202.44;10500215;28;20063;-71
2023/10/29 04:42:24;;;;;;;2.63;1.15;;;;;;;10.05;100.00;151202.44;10500386;28;20381;-72
2023/10/29 04:47:26;;;;;;;0.95;0.80;;;;;;;10.08;100.00;151208.88;10500195;28;20112;-73
2023/10/29 04:52:28;;;;;;;4.25;1.00;;;;;;;10.22;100.00;151245.00;10501222;28;20459;-71
2023/10/29 04:57:30;;;;;;;1.35;0.82;;;;;;;10.30;100.00;151265.72;10505208;28;20045;-71
2023/10/29 05:02:31;;;;;;;0.88;0.55;;;;;;;10.24;100.00;151250.25;10508467;28;20067;-72
2023/10/29 05:07:35;;;;;;;1.98;1.08;;;;;;;10.09;100.00;151211.44;10506751;28;20044;-71
2023/10/29 05:12:37;;;;;;;1.83;1.00;;;;;;;10.02;100.00;151194.69;10507514;28;20442;-72
2023/10/29 05:17:38;;;;;;;1.70;0.90;;;;;;;10.10;100.00;151214.06;10489924;28;20124;-72
2023/10/29 05:22:40;;;;;;;1.67;1.10;;;;;;;10.23;100.00;151246.34;10490644;28;20083;-72
2023/10/29 05:27:55;;;;;;;0.90;0.60;;;;;;;10.40;100.00;151290.22;10507379;28;20041;-72
2023/10/29 05:32:57;;;;;;;0.40;0.40;;;;;;;10.64;97.48;151350.94;10506751;28;20028;-73
2023/10/29 05:37:59;;;;;;;1.30;0.30;;;;;;;11.08;91.48;151462.00;10506748;28;20049;-72
2023/10/29 05:43:01;;;;;;;1.38;0.45;;;;;;;11.47;88.57;151561.50;10506927;28;20399;-72
2023/10/29 05:48:03;;;;;;;0.50;0.32;;;;;;;11.50;86.92;151567.94;10505073;28;20117;-72
2023/10/29 05:53:05;;;;;;;0.40;0.30;;;;;;;11.82;83.11;151649.31;10487330;28;20048;-72
2023/10/29 05:58:07;;;;;;;1.13;0.40;;;;;;;12.05;79.23;151707.56;10505364;28;20551;-72
2023/10/29 06:03:08;;;;;;;0.85;0.20;;;;;;;12.11;80.86;151724.34;10505634;28;20074;-72
2023/10/29 06:08:10;;;;;;;0.80;0.40;;;;;;;12.02;79.32;151701.09;10486493;28;20048;-71
2023/10/29 06:13:12;;;;;;;2.05;0.70;;;;;;;12.08;78.89;151716.59;10503812;28;20044;-71
2023/10/29 06:18:16;;;;;;;0.57;0.30;;;;;;;12.33;76.39;151779.94;10504162;28;20454;-73
2023/10/29 06:23:18;;;;;;;0.60;0.40;;;;;;;12.62;72.16;151853.66;10486799;28;20044;-73
2023/10/29 06:28:20;;;;;;;2.50;0.20;;;;;;;12.77;72.40;151889.88;10504776;28;20075;-72
2023/10/29 06:33:21;;;;;;;0.68;0.30;;;;;;;12.82;72.32;151902.78;10504533;28;20499;-72
2023/10/29 06:38:24;;;;;;;0.60;0.30;;;;;;;13.02;71.86;151954.56;10506881;28;20044;-72
2023/10/29 06:43:26;;;;;;;0.63;0.22;;;;;;;13.11;68.62;151977.84;10504755;28;20127;-74
2023/10/29 06:48:28;;;;;;;0.20;0.20;;;;;;;13.14;69.31;151984.28;10504135;28;20044;-72
2023/10/29 06:53:30;;;;;;;0.88;0.32;;;;;;;13.11;68.88;151977.84;10502928;28;20071;-72
2023/10/29 06:58:32;;;;;;;0.68;0.40;;;;;;;13.22;69.53;152003.69;10503054;28;20080;-72
2023/10/29 07:03:35;;;;;;;0.93;0.50;;;;;;;13.26;68.16;152015.38;10503733;28;20102;-72
2023/10/29 07:08:38;;;;;;;0.30;0.20;;;;;;;13.49;67.09;152073.59;10502720;28;20411;-71
2023/10/29 07:13:41;;;;;;;0.68;0.22;;;;;;;13.67;66.71;152118.88;10502719;28;20040;-71
2023/10/29 07:18:43;;;;;;;0.30;0.20;;;;;;;13.59;66.58;152099.50;10501496;28;20032;-70
2023/10/29 07:23:48;;;;;;;0.55;0.28;;;;;;;13.85;65.86;152164.19;10483799;28;20048;-70
2023/10/29 07:28:50;;;;;;;0.43;0.28;;;;;;;13.96;64.20;152192.69;10502169;28;20044;-70
2023/10/29 07:33:52;;;;;;;0.65;0.25;;;;;;;14.03;63.01;152210.81;10501888;28;20041;-70
2023/10/29 07:38:53;;;;;;;0.73;0.40;;;;;;;14.17;63.75;152244.47;10501763;28;20083;-71
2023/10/29 07:43:55;;;;;;;0.50;0.40;;;;;;;14.00;64.65;152203.03;10484562;28;20139;-70
2023/10/29 07:48:57;;;;;;;0.35;0.20;;;;;;;13.82;67.06;152156.44;10502782;28;20452;-70
2023/10/29 07:53:59;;;;;;;0.65;0.30;;;;;;;14.31;62.48;152280.72;10501671;28;20040;-71
2023/10/29 07:59:02;;;;;;;0.52;0.30;;;;;;;14.09;65.68;152226.34;10483714;28;20044;-69
2023/10/29 08:04:06;;;;;;;0.73;0.20;;;;;;;14.39;62.38;152301.44;10502269;28;20052;-70
2023/10/29 08:09:08;;;;;;;1.33;0.50;;;;;;;14.28;64.11;152272.94;10503048;28;20047;-70
2023/10/29 08:14:10;;;;;;;0.60;0.30;;;;;;;14.32;63.00;152283.28;10503134;28;20040;-70
2023/10/29 08:19:12;;;;;;;0.70;0.47;;;;;;;14.36;63.66;152294.94;10481589;28;20093;-69
2023/10/29 08:24:14;;;;;;;1.55;0.65;;;;;;;14.53;62.12;152337.72;10500882;28;20041;-71
2023/10/29 08:29:16;;;;;;;0.30;0.20;;;;;;;14.39;62.72;152302.72;10499828;28;20046;-71
2023/10/29 08:34:18;;;;;;;2.17;0.40;;;;;;;14.39;64.85;152301.44;10506345;28;20044;-71
2023/10/29 08:39:21;;;;;;;0.63;0.30;;;;;;;14.46;63.96;152319.53;10507477;28;20086;-70
2023/10/29 08:44:23;;;;;;;0.90;0.60;;;;;;;14.50;63.92;152329.94;10506426;28;20032;-69
2023/10/29 08:49:25;;;;;;;0.55;0.40;;;;;;;14.78;62.79;152399.88;10507159;28;20044;-69
2023/10/29 08:54:26;;;;;;;0.90;0.30;;;;;;;14.44;67.99;152313.09;10506140;28;20032;-70
2023/10/29 08:59:28;;;;;;;0.90;0.50;;;;;;;14.14;69.87;152238.00;10489518;28;20068;-71
2023/10/29 09:04:32;;;;;;;2.67;0.65;;;;;;;13.99;70.30;152200.47;10504599;28;20098;-70
2023/10/29 09:09:35;;;;;;;1.90;0.55;;;;;;;14.03;70.00;152209.47;10508746;28;20040;-71
2023/10/29 09:14:37;;;;;;;0.70;0.30;;;;;;;14.12;66.77;152234.13;10509553;28;20036;-70
2023/10/29 09:19:39;;;;;;;0.77;0.30;;;;;;;14.11;65.67;152230.19;10509898;28;20051;-70
2023/10/29 09:24:41;;;;;;;0.93;0.40;;;;;;;14.16;67.72;152243.13;10493170;28;20064;-70
2023/10/29 09:29:43;;;;;;;1.48;1.05;;;;;;;14.03;72.97;152210.81;10508439;28;20098;-71
2023/10/29 09:34:44;;;;;;;2.35;0.85;;;;;;;13.91;74.15;152179.75;10489244;28;20496;-71
2023/10/29 09:39:46;;;;;;;0.90;0.60;;;;;;;13.76;74.06;152140.88;10507688;28;20527;-71
2023/10/29 09:44:51;;;;;;;1.00;0.70;;;;;;;14.14;71.46;152239.28;10505670;28;20040;-71
2023/10/29 09:49:54;;;;;;;0.95;0.70;;;;;;;14.36;69.85;152294.94;10507328;28;20115;-71
2023/10/29 09:54:57;;;;;;;1.17;0.68;;;;;;;14.55;68.47;152341.59;10507317;28;20044;-71
2023/10/29 10:00:00;;;;;;;1.27;0.63;;;;;;;14.43;67.88;152311.75;10505617;28;20076;-71
2023/10/29 10:05:07;;;;;;;1.13;0.70;;;;;;;14.48;69.27;152324.78;10486344;28;20044;-71
2023/10/29 10:10:09;;;;;;;1.10;0.55;;;;;;;14.80;68.76;152405.06;10504460;28;20045;-70
2023/10/29 10:15:11;;;;;;;0.35;0.35;;;;;;;15.02;66.63;152460.78;10503778;28;20036;-71
2023/10/29 10:20:13;;;;;;;1.17;0.57;;;;;;;15.08;66.99;152476.31;10503250;28;20044;-71
2023/10/29 10:25:19;;;;;;;1.15;0.60;;;;;;;15.13;66.53;152489.25;10485536;28;20072;-71
2023/10/29 10:30:35;;;;;;;0.70;0.50;;;;;;;14.94;68.39;152441.34;10485744;28;20048;-71
2023/10/29 10:35:50;;;;;;;;;;;;;;;14.79;69.46;152403.78;10486855;28;20040;-70
2023/10/29 10:41:00;;;;;;;1.17;0.52;;;;;;;14.77;69.07;152397.28;10485930;28;19928;-71
2023/10/29 10:46:05;;;;;;;0.80;0.60;;;;;;;14.81;71.66;152407.66;10504667;28;20051;-71
2023/10/29 10:51:11;;;;;;;1.63;0.50;;;;;;;14.58;72.64;152350.69;10485970;28;20090;-70
2023/10/29 10:56:13;;;;;;;4.28;1.10;;;;;;;14.53;74.01;152336.44;10503338;28;20041;-70
2023/10/29 11:01:16;;;;;;;1.15;0.55;;;;;;;14.52;71.65;152333.81;10504406;28;20044;-72
2023/10/29 11:06:18;;;;;;;0.50;0.50;;;;;;;14.53;69.07;152337.72;10486407;28;20102;-71
2023/10/29 11:11:26;;;;;;;0.10;0.10;;;;;;;15.32;59.59;152538.53;10502604;28;20047;-70
2023/10/29 11:16:28;;;;;;;0.40;0.20;;;;;;;15.98;59.85;152704.41;10484547;28;20047;-70
2023/10/29 11:21:32;;;;;;;1.25;0.40;;;;;;;16.05;61.54;152723.88;10503126;28;20044;-70
2023/10/29 11:26:34;;;;;;;0.25;0.20;;;;;;;16.09;56.49;152732.97;10502223;28;20411;-71
2023/10/29 11:31:35;;;;;;;0.45;0.30;;;;;;;16.20;55.19;152760.16;10501711;28;20094;-70
2023/10/29 11:36:40;;;;;;;0.43;0.28;;;;;;;16.54;53.64;152847.03;10501236;28;20090;-71
2023/10/29 11:41:43;;;;;;;0.50;0.25;;;;;;;16.58;53.59;152858.72;10501969;28;20111;-70
2023/10/29 11:46:55;;;;;;;0.30;0.25;;;;;;;16.54;57.33;152848.34;10500810;28;20055;-70
2023/10/29 11:52:01;;;;;;;0.45;0.25;;;;;;;16.26;58.53;152777.03;10502205;28;20082;-70
2023/10/29 11:57:05;;;;;;;3.45;0.40;;;;;;;16.10;59.41;152736.81;10502212;28;20040;-71
2023/10/29 12:02:07;;;;;;;0.20;0.20;;;;;;;16.13;61.37;152743.31;10501342;28;20561;-71
2023/10/29 12:07:25;;;;;;;0.65;0.40;;;;;;;16.01;61.92;152713.50;10503226;28;20040;-71
2023/10/29 12:12:27;;;;;;;0.73;0.32;;;;;;;15.82;62.87;152664.25;10501950;28;20036;-71
2023/10/29 12:17:29;;;;;;;0.60;0.50;;;;;;;15.79;63.69;152657.75;10501809;28;20044;-71
2023/10/29 12:22:32;;;;;;;1.02;0.50;;;;;;;15.79;63.67;152657.75;10501676;28;20374;-72
2023/10/29 12:27:34;;;;;;;0.73;0.30;;;;;;;15.82;63.62;152665.53;10500507;28;20055;-71
2023/10/29 12:32:36;;;;;;;0.73;0.40;;;;;;;15.78;64.36;152653.88;10501523;28;20040;-71
2023/10/29 12:37:37;;;;;;;0.43;0.40;;;;;;;15.82;64.14;152664.25;10508998;22;20075;-69
2023/10/29 12:42:51;;;;;;;0.57;0.30;;;;;;;15.61;65.13;152612.34;11478683;22;20074;-84
2023/10/29 12:48:14;;;;;;;0.80;0.32;;;;;;;15.72;65.66;152638.34;10571313;28;20105;-82
2023/10/29 12:53:27;;;;;;;1.17;0.40;;;;;;;15.83;64.72;152668.13;10553066;28;20462;-85
2023/10/29 12:58:29;;;;;;;0.65;0.30;;;;;;;15.74;65.58;152644.81;10527715;22;20067;-83
2023/10/29 13:03:31;;;;;;;0.82;0.45;;;;;;;15.77;65.13;152651.31;10530626;28;20094;-82
2023/10/29 13:08:32;;;;;;;0.30;0.30;;;;;;;15.58;65.91;152604.59;10555191;28;20076;-79
2023/10/29 13:13:35;;;;;;;1.55;0.40;;;;;;;15.42;68.41;152561.84;10500512;28;20044;-80
2023/10/29 13:18:37;;;;;;;0.60;0.50;;;;;;;15.52;68.71;152589.03;10538869;28;20071;-81
2023/10/29 13:23:39;;;;;;;0.85;0.50;;;;;;;15.14;71.74;152491.88;10574367;28;20047;-82
2023/10/29 13:28:41;;;;;;;0.88;0.52;;;;;;;15.10;72.08;152481.50;10535613;28;20052;-82
2023/10/29 13:33:47;;;;;;;1.00;0.80;;;;;;;15.07;71.25;152475.03;10567639;28;20032;-81
2023/10/29 13:38:49;;;;;;;0.90;0.60;;;;;;;15.01;71.63;152459.50;10580190;28;20101;-82
2023/10/29 13:43:51;;;;;;;0.98;0.68;;;;;;;14.91;73.78;152433.56;10558552;28;20071;-84
2023/10/29 13:48:53;;;;;;;1.73;0.80;;;;;;;14.94;75.86;152441.34;10561647;28;20082;-78
2023/10/29 13:53:55;;;;;;;1.45;0.60;;;;;;;15.02;74.57;152460.78;10554151;28;20104;-82
2023/10/29 13:58:57;;;;;;;0.95;0.60;;;;;;;15.04;76.94;152467.22;10533472;28;20122;-80
2023/10/29 14:03:58;;;;;;;0.75;0.68;;;;;;;15.04;78.40;152467.22;10566533;28;20036;-84
2023/10/29 14:09:01;;;;;;;1.92;0.90;;;;;;;14.83;78.36;152414.16;10522356;28;20048;-83
2023/10/29 14:14:03;;;;;;;1.00;0.70;;;;;;;14.54;83.02;152339.03;10554827;28;20479;-81
2023/10/29 14:19:08;;;;;;;2.65;1.13;;;;;;;14.59;81.97;152353.25;10552857;28;20094;-82
2023/10/29 14:24:10;;;;;;;2.13;1.20;;;;;;;14.51;84.77;152332.53;10532929;28;20048;-82
2023/10/29 14:29:12;;;;;;;1.85;1.15;;;;;;;14.80;80.33;152406.38;10531208;28;20063;-81
2023/10/29 14:34:14;;;;;;;1.48;1.00;;;;;;;14.93;78.73;152437.47;10551883;28;20047;-83
2023/10/29 14:39:17;;;;;;;3.03;1.00;;;;;;;15.04;78.46;152467.22;10532991;28;20048;-81
2023/10/29 14:44:19;;;;;;;1.00;0.73;;;;;;;14.98;76.09;152450.41;10550523;28;20044;-82
2023/10/29 14:49:21;;;;;;;1.27;0.90;;;;;;;15.19;72.59;152503.53;10550462;28;20048;-82
2023/10/29 14:54:22;;;;;;;1.00;0.90;;;;;;;15.03;73.68;152464.66;10552793;28;20046;-82
2023/10/29 14:59:24;;;;;;;2.22;0.80;;;;;;;14.82;75.48;152411.53;10548857;28;20032;-80
2023/10/29 15:04:26;;;;;;;1.30;0.73;;;;;;;14.74;74.98;152390.84;10568147;28;20105;-81
2023/10/29 15:09:29;;;;;;;1.00;0.80;;;;;;;14.75;74.72;152393.44;10531615;28;20051;-83
2023/10/29 15:14:30;;;;;;;0.98;0.75;;;;;;;14.52;75.45;152333.81;10548732;28;20059;-81
2023/10/29 15:19:32;;;;;;;0.90;0.77;;;;;;;14.58;75.32;152349.38;10547852;28;20130;-82
2023/10/29 15:24:38;;;;;;;1.95;1.17;;;;;;;14.41;75.47;152306.59;10548636;28;20070;-83
2023/10/29 15:29:41;;;;;;;0.90;0.80;;;;;;;14.21;77.74;152254.78;10547576;28;20048;-83
2023/10/29 15:34:43;;;;;;;2.97;0.93;;;;;;;14.30;76.73;152278.13;10546695;28;20040;-82
2023/10/29 15:39:45;;;;;;;1.30;0.80;;;;;;;14.46;74.67;152318.25;10513170;28;20116;-82
2023/10/29 15:44:46;;;;;;;1.23;1.05;;;;;;;14.35;74.95;152291.09;10529190;28;20073;-82
2023/10/29 15:49:55;;;;;;;1.30;1.00;;;;;;;14.24;76.77;152262.56;10546907;28;20526;-84
2023/10/29 15:54:56;;;;;;;1.20;0.90;;;;;;;14.29;76.60;152276.81;10546738;28;20039;-81
2023/10/29 15:59:58;;;;;;;1.60;1.48;;;;;;;14.04;78.40;152213.41;10561189;28;20056;-80
2023/10/29 16:05:00;;;;;;;1.30;0.90;;;;;;;14.27;76.85;152271.66;10584726;28;20048;-80
2023/10/29 16:10:02;;;;;;;4.93;4.50;;;;;;;14.20;76.73;152252.22;10548104;28;20072;-82
2023/10/29 16:15:05;;;;;;;2.40;1.80;;;;;;;14.30;75.48;152278.13;10530696;28;20036;-82
2023/10/29 16:20:07;;;;;;;1.42;1.00;;;;;;;14.14;76.96;152239.28;10549750;28;20058;-83
2023/10/29 16:25:09;;;;;;;1.85;1.27;;;;;;;14.00;78.35;152203.03;10528244;28;20554;-84
2023/10/29 16:30:12;;;;;;;1.58;1.10;;;;;;;14.04;77.55;152213.41;10565929;28;20044;-84
2023/10/29 16:35:14;;;;;;;1.30;1.10;;;;;;;13.98;79.88;152197.84;10528594;28;20135;-83
2023/10/29 16:40:16;;;;;;;3.25;1.02;;;;;;;13.96;80.54;152192.69;10510187;28;20074;-82
2023/10/29 16:45:21;;;;;;;2.38;1.33;;;;;;;13.86;81.26;152166.81;10547374;28;20044;-82
2023/10/29 16:50:23;;;;;;;2.30;1.40;;;;;;;13.66;83.05;152115.03;10530481;28;20052;-81
2023/10/29 16:55:24;;;;;;;3.45;1.48;;;;;;;13.53;85.08;152083.94;10536927;28;20491;-82
2023/10/29 17:00:27;;;;;;;2.60;1.50;;;;;;;13.50;85.39;152076.22;10538163;28;20135;-83
2023/10/29 17:05:29;;;;;;;3.40;1.67;;;;;;;13.37;85.45;152043.88;10536523;28;20549;-82
2023/10/29 17:10:31;;;;;;;2.55;1.65;;;;;;;13.20;86.77;151998.53;10543793;28;20509;-80
2023/10/29 17:15:34;;;;;;;2.28;1.40;;;;;;;13.18;86.81;151993.34;10553930;28;20131;-83
2023/10/29 17:20:38;;;;;;;3.38;1.52;;;;;;;13.22;87.41;152005.03;10531145;28;20048;-81
2023/10/29 17:25:39;;;;;;;7.05;1.63;;;;;;;13.29;88.17;152021.88;10545220;28;20046;-82
2023/10/29 17:30:41;;;;;;;2.28;1.50;;;;;;;13.17;90.86;151992.06;10561466;28;20094;-81
2023/10/29 17:35:43;;;;;;;2.47;1.40;;;;;;;13.10;91.05;151973.91;10544644;28;20051;-80
2023/10/29 17:40:44;;;;;;;2.58;2.25;;;;;;;13.31;88.99;152027.03;10544600;28;20051;-81
2023/10/29 17:45:47;;;;;;;2.88;1.75;;;;;;;13.55;87.88;152087.88;10560212;28;20038;-80
2023/10/29 17:50:56;;;;;;;3.42;1.85;;;;;;;13.48;87.96;152071.03;10542571;28;20055;-82
2023/10/29 17:55:58;;;;;;;1.88;1.25;;;;;;;13.29;88.64;152021.88;10555790;28;20070;-80
2023/10/29 18:01:00;;;;;;;2.80;1.67;;;;;;;13.23;88.53;152007.59;10562543;28;20469;-82
2023/10/29 18:06:13;;;;;;;2.00;1.30;;;;;;;13.10;89.13;151975.25;10537861;28;20047;-82
2023/10/29 18:11:18;;;;;;;1.73;1.20;;;;;;;13.08;89.47;151968.75;10556962;28;20044;-83
2023/10/29 18:16:19;;;;;;;2.33;1.60;;;;;;;13.25;90.36;152012.81;10537328;28;20291;-83
2023/10/29 18:21:21;;;;;;;2.55;1.67;;;;;;;13.08;93.04;151968.75;10538328;28;20560;-80
2023/10/29 18:26:23;;;;;;;2.22;1.60;;;;;;;13.22;89.57;152003.69;10556341;28;20044;-82
2023/10/29 18:31:25;;;;;;;2.28;1.73;;;;;;;13.56;85.92;152091.72;10554221;28;20044;-83
2023/10/29 18:36:28;;;;;;;2.90;2.00;;;;;;;13.63;85.37;152109.88;10555148;28;20192;-81
2023/10/29 18:41:29;;;;;;;3.58;1.67;;;;;;;13.76;84.75;152140.88;10558195;28;20044;-82
2023/10/29 18:46:31;;;;;;;2.58;1.40;;;;;;;13.54;85.97;152085.25;10562297;28;20040;-81
2023/10/29 18:51:33;;;;;;;1.92;1.50;;;;;;;13.44;87.73;152059.38;10556064;28;20118;-82
2023/10/29 18:56:35;;;;;;;2.40;2.00;;;;;;;13.48;87.83;152071.03;10535749;28;20067;-82
2023/10/29 19:01:36;;;;;;;2.65;1.65;;;;;;;13.43;87.82;152056.78;10563141;28;20545;-82
2023/10/29 19:06:38;;;;;;;2.08;1.65;;;;;;;13.43;87.62;152058.09;10545383;28;20499;-82
2023/10/29 19:11:40;;;;;;;3.05;1.65;;;;;;;13.65;86.69;152112.44;10542625;28;20056;-81
2023/10/29 19:16:42;;;;;;;2.90;1.95;;;;;;;13.51;89.00;152078.78;10528072;28;20044;-80
2023/10/29 19:21:44;;;;;;;2.70;1.85;;;;;;;13.15;90.71;151986.91;10549741;28;20047;-79
2023/10/29 19:26:46;;;;;;;3.78;2.28;;;;;;;13.23;92.10;152006.31;10564191;28;20040;-80
2023/10/29 19:31:48;;;;;;;2.40;1.83;;;;;;;13.40;96.13;152049.03;10541566;28;20040;-80
2023/10/29 19:36:49;;;;;;;3.47;2.65;;;;;;;13.07;99.37;151966.19;10561354;28;20119;-80
2023/10/29 19:41:51;;;;;;;3.42;2.47;;;;;;;13.14;99.07;151985.56;10543472;28;20055;-80
2023/10/29 19:46:55;;;;;;;3.13;2.38;;;;;;;12.90;100.00;151922.22;10529424;28;20135;-80
2023/10/29 19:51:56;;;;;;;8.05;2.72;;;;;;;12.64;100.00;151857.53;10544953;28;20070;-81
2023/10/29 19:57:00;;;;;;;4.40;2.58;;;;;;;12.71;100.00;151875.66;10549056;28;20059;-81
2023/10/29 20:02:02;;;;;;;4.13;2.92;;;;;;;12.70;100.00;151871.75;10571049;28;20039;-81
2023/10/29 20:07:04;;;;;;;2.85;2.08;;;;;;;12.55;100.00;151835.53;10555530;28;20044;-83
2023/10/29 20:12:07;;;;;;;4.28;2.33;;;;;;;12.56;100.00;151838.13;10546662;28;20096;-81
2023/10/29 20:17:08;;;;;;;2.67;1.67;;;;;;;12.80;98.34;151897.66;10554979;28;20047;-82
2023/10/29 20:22:10;;;;;;;2.25;1.85;;;;;;;12.78;98.29;151892.44;10545046;28;20104;-80
2023/10/29 20:27:12;;;;;;;2.97;1.80;;;;;;;12.80;97.75;151897.66;10564908;28;20066;-80
2023/10/29 20:32:13;;;;;;;2.72;1.50;;;;;;;13.06;94.16;151963.63;10575394;28;20055;-80
2023/10/29 20:37:15;;;;;;;2.03;1.42;;;;;;;13.10;92.20;151973.91;10574468;28;20036;-80
2023/10/29 20:42:17;;;;;;;1.63;0.60;;;;;;;13.33;87.68;152032.22;10556627;28;20085;-79
2023/10/29 20:47:19;;;;;;;1.35;0.32;;;;;;;14.01;80.99;152204.31;10595805;28;20076;-78
2023/10/29 20:52:21;;;;;;;0.70;0.50;;;;;;;14.08;82.46;152222.47;10578614;28;20044;-79
2023/10/29 20:57:23;;;;;;;1.95;0.40;;;;;;;14.26;80.96;152267.78;10555741;28;20071;-79
2023/10/29 21:02:25;;;;;;;0.40;0.38;;;;;;;14.14;81.04;152239.28;10555971;28;20044;-80
2023/10/29 21:07:27;;;;;;;0.63;0.40;;;;;;;14.46;77.83;152318.25;10552758;28;20036;-81
2023/10/29 21:12:29;;;;;;;1.40;0.40;;;;;;;14.38;78.68;152300.09;10569207;28;20074;-80
2023/10/29 21:17:31;;;;;;;0.43;0.30;;;;;;;14.04;81.59;152213.41;10551234;28;20048;-81
2023/10/29 21:22:32;;;;;;;1.48;1.20;;;;;;;13.82;83.40;152156.44;10575922;28;20093;-81
2023/10/29 21:27:36;;;;;;;0.60;0.40;;;;;;;13.68;84.53;152120.16;10555017;28;20054;-81
2023/10/29 21:32:42;;;;;;;0.88;0.70;;;;;;;13.56;87.71;152090.44;10563095;28;20044;-79
2023/10/29 21:37:45;;;;;;;0.75;0.47;;;;;;;13.50;88.76;152074.88;10573823;28;20050;-80
2023/10/29 21:42:46;;;;;;;0.80;0.50;;;;;;;13.47;89.26;152067.16;10588851;28;20069;-79
2023/10/29 21:47:48;;;;;;;0.40;0.30;;;;;;;13.78;83.71;152146.09;10589625;28;20062;-79
2023/10/29 21:52:50;;;;;;;1.27;0.55;;;;;;;13.54;84.84;152086.53;10576701;28;20051;-80
2023/10/29 21:57:51;;;;;;;0.60;0.40;;;;;;;13.60;84.12;152102.09;10553525;28;20105;-80
2023/10/29 22:02:53;;;;;;;0.52;0.30;;;;;;;13.78;81.29;152147.38;10557845;28;20051;-80
2023/10/29 22:07:55;;;;;;;0.70;0.43;;;;;;;13.77;81.36;152144.81;10570699;28;20099;-80
2023/10/29 22:12:57;;;;;;;0.40;0.35;;;;;;;13.85;80.34;152165.47;10575018;28;20047;-81
2023/10/29 22:17:59;;;;;;;0.30;0.28;;;;;;;13.98;79.07;152196.53;10585464;28;20036;-81
2023/10/29 22:23:01;;;;;;;0.25;0.25;;;;;;;14.09;78.55;152225.03;10574853;28;20055;-79
2023/10/29 22:28:03;;;;;;;0.77;0.43;;;;;;;14.17;78.21;152245.78;10562880;28;20052;-80
2023/10/29 22:33:08;;;;;;;0.68;0.20;;;;;;;14.23;77.47;152261.28;10555170;28;20067;-79
2023/10/29 22:38:11;;;;;;;0.20;0.20;;;;;;;14.24;77.36;152263.88;10567821;28;20035;-80
2023/10/29 22:43:14;;;;;;;0.25;0.20;;;;;;;14.23;77.77;152261.28;10541814;28;20104;-81
2023/10/29 22:48:18;;;;;;;0.17;0.17;;;;;;;14.16;78.64;152241.84;10553825;28;20392;-80
2023/10/29 22:53:22;;;;;;;0.35;0.28;;;;;;;13.99;79.44;152199.13;10523572;28;20411;-80
2023/10/29 22:58:26;;;;;;;0.20;0.20;;;;;;;14.18;78.67;152247.06;10537068;28;20210;-79
2023/10/29 23:03:29;;;;;;;0.40;0.15;;;;;;;14.26;77.54;152267.78;10520607;28;20040;-79
2023/10/29 23:08:35;;;;;;;0.20;0.20;;;;;;;14.44;76.77;152313.09;10520104;28;20048;-80